Terminal Aerodrome Forecast
Issued by NWS

Home | Current Version | Previous Version | Text Only | Print | Product List | Glossary On
Versions: 1 2 3 4 5 6 7 8 9 10 11 12 13 14 15 16
000
FTUS43 KJKL 011100 RRA
TAFSME
TAF
KSME 011141Z 0112/0212 00000KT P6SM BKN090
     FM011400 05005KT P6SM VCTS SCT025CB BKN040
     FM012200 00000KT P6SM SCT250
     FM020600 00000KT 4SM BR FEW250
     FM020800 00000KT 1/2SM FG VV004=

USA.gov is the U.S. government's official web portal to all federal, state and local government web resources and services.